createdAt,value
2019-01-30T00:00:32.078Z,0.21
2019-01-30T00:03:00.289Z,0.21
2019-01-30T00:05:28.406Z,0.23
2019-01-30T00:07:56.542Z,0.20
2019-01-30T00:10:24.519Z,0.18
2019-01-30T00:12:52.800Z,0.20
2019-01-30T00:15:20.764Z,0.18
2019-01-30T00:17:48.845Z,0.17
2019-01-30T00:20:16.766Z,0.19
2019-01-30T00:22:44.535Z,0.19
2019-01-30T00:25:12.591Z,0.16
2019-01-30T00:27:40.673Z,0.14
2019-01-30T00:30:09.612Z,0.13
2019-01-30T00:32:37.522Z,0.11
2019-01-30T00:35:06.758Z,0.07
2019-01-30T00:37:34.718Z,0.07
2019-01-30T00:40:02.859Z,0.08
2019-01-30T00:42:30.722Z,0.07
2019-01-30T00:44:58.540Z,0.05
2019-01-30T00:47:26.293Z,0.03
2019-01-30T00:49:54.248Z,0.01
2019-01-30T00:52:22.125Z,0.00
2019-01-30T00:54:50.009Z,-0.02
2019-01-30T00:57:17.849Z,-0.04
2019-01-30T00:59:45.634Z,-0.07
2019-01-30T01:02:13.705Z,-0.08
2019-01-30T01:04:41.705Z,-0.10
2019-01-30T01:07:09.753Z,-0.12
2019-01-30T01:09:37.793Z,-0.13
2019-01-30T01:12:05.893Z,-0.17
2019-01-30T01:14:34.815Z,-0.19
2019-01-30T01:17:02.789Z,-0.21
2019-01-30T01:19:30.687Z,-0.23
2019-01-30T01:22:00.989Z,-0.29
2019-01-30T01:24:29.071Z,-0.33
2019-01-30T01:26:57.083Z,-0.32
2019-01-30T01:29:26.039Z,-0.35
2019-01-30T01:31:53.985Z,-0.37
2019-01-30T01:34:22.028Z,-0.39
2019-01-30T01:36:49.780Z,-0.41
2019-01-30T01:39:17.697Z,-0.43
2019-01-30T01:41:45.455Z,-0.45
2019-01-30T01:44:13.455Z,-0.48
2019-01-30T01:46:41.428Z,-0.51
2019-01-30T01:49:09.375Z,-0.52
2019-01-30T01:51:37.329Z,-0.52
2019-01-30T01:54:05.288Z,-0.54
2019-01-30T01:56:33.247Z,-0.55
2019-01-30T01:59:01.131Z,-0.57
2019-01-30T02:01:29.021Z,-0.58
2019-01-30T02:03:57.166Z,-0.62
2019-01-30T02:06:25.166Z,-0.60
2019-01-30T02:08:53.023Z,-0.60
2019-01-30T02:11:20.966Z,-0.64
2019-01-30T02:13:48.727Z,-0.66
2019-01-30T02:16:16.930Z,-0.66
2019-01-30T02:18:44.700Z,-0.68
2019-01-30T02:21:12.715Z,-0.69
2019-01-30T02:23:40.478Z,-0.71
2019-01-30T02:26:08.531Z,-0.71
2019-01-30T02:28:36.506Z,-0.74
2019-01-30T02:31:04.431Z,-0.75
2019-01-30T02:33:32.352Z,-0.77
2019-01-30T02:36:00.305Z,-0.78
2019-01-30T02:38:28.120Z,-0.81
2019-01-30T02:40:56.043Z,-0.86
2019-01-30T02:43:24.096Z,-0.86
2019-01-30T02:45:51.972Z,-0.88
2019-01-30T02:48:19.869Z,-0.95
2019-01-30T02:50:47.840Z,-0.99
2019-01-30T02:53:15.719Z,-1.00
2019-01-30T02:55:45.145Z,-1.07
2019-01-30T02:58:13.045Z,-1.06
2019-01-30T03:00:41.124Z,-1.07
2019-01-30T03:03:09.015Z,-1.06
2019-01-30T03:05:36.969Z,-1.03
2019-01-30T03:08:05.131Z,-1.05
2019-01-30T03:10:33.126Z,-1.05
2019-01-30T03:13:01.096Z,-1.06
2019-01-30T03:15:29.130Z,-1.04
2019-01-30T03:17:56.994Z,-1.10
2019-01-30T03:20:25.796Z,-1.09
2019-01-30T03:22:54.060Z,-1.12
2019-01-30T03:25:22.810Z,-1.12
2019-01-30T03:27:50.849Z,-1.15
2019-01-30T03:30:20.910Z,-1.19
2019-01-30T03:32:49.776Z,-1.22
2019-01-30T03:35:17.942Z,-1.23
2019-01-30T03:37:45.910Z,-1.22
2019-01-30T03:40:15.611Z,-1.21
2019-01-30T03:42:43.466Z,-1.21
2019-01-30T03:45:12.208Z,-1.24
2019-01-30T03:47:40.867Z,-1.27
2019-01-30T03:50:09.798Z,-1.27
2019-01-30T03:52:37.714Z,-1.26
2019-01-30T03:55:07.196Z,-1.24
2019-01-30T03:57:42.607Z,-1.32
2019-01-30T04:00:16.340Z,-1.40
2019-01-30T04:02:44.401Z,-1.38
2019-01-30T04:05:12.506Z,-1.44
2019-01-30T04:07:40.449Z,-1.47
2019-01-30T04:10:10.240Z,-1.55
2019-01-30T04:12:38.320Z,-1.49
2019-01-30T04:15:06.929Z,-1.57
2019-01-30T04:17:34.781Z,-1.58
2019-01-30T04:20:03.553Z,-1.59
2019-01-30T04:22:31.400Z,-1.59
2019-01-30T04:24:59.485Z,-1.61
2019-01-30T04:27:27.443Z,-1.65
2019-01-30T04:29:55.417Z,-1.65
2019-01-30T04:32:23.327Z,-1.70
2019-01-30T04:34:51.182Z,-1.69
2019-01-30T04:37:18.957Z,-1.67
2019-01-30T04:39:46.993Z,-1.68
2019-01-30T04:42:14.940Z,-1.75
2019-01-30T04:44:43.550Z,-1.69
2019-01-30T04:47:11.319Z,-1.75
2019-01-30T04:49:39.209Z,-1.81
2019-01-30T04:52:07.273Z,-1.82
2019-01-30T04:54:35.112Z,-1.82
2019-01-30T04:57:02.999Z,-1.86
2019-01-30T04:59:33.732Z,-1.84
2019-01-30T05:02:02.226Z,-1.86
2019-01-30T05:04:30.134Z,-1.93
2019-01-30T05:06:58.057Z,-1.93
2019-01-30T05:09:26.212Z,-1.97
2019-01-30T05:11:54.361Z,-1.94
2019-01-30T05:14:22.260Z,-1.86
2019-01-30T05:16:50.137Z,-1.86
2019-01-30T05:19:17.981Z,-1.82
2019-01-30T05:21:45.878Z,-1.78
2019-01-30T05:24:13.840Z,-1.85
2019-01-30T05:26:41.617Z,-1.91
2019-01-30T05:29:09.451Z,-1.95
2019-01-30T05:31:37.262Z,-1.92
2019-01-30T05:34:05.253Z,-1.87
2019-01-30T05:36:33.313Z,-1.86
2019-01-30T05:39:01.169Z,-1.91
2019-01-30T05:41:29.802Z,-1.85
2019-01-30T05:43:57.683Z,-1.81
2019-01-30T05:46:25.453Z,-1.84
2019-01-30T05:48:53.872Z,-1.81
2019-01-30T05:51:21.724Z,-1.78
2019-01-30T05:53:49.745Z,-1.75
2019-01-30T05:56:20.188Z,-1.71
2019-01-30T05:58:47.385Z,-1.72
2019-01-30T06:01:17.791Z,-1.71
2019-01-30T06:03:45.957Z,-1.66
2019-01-30T06:06:13.887Z,-1.67
2019-01-30T06:08:41.744Z,-1.62
2019-01-30T06:11:12.119Z,-1.62
2019-01-30T06:13:39.447Z,-1.61
2019-01-30T06:16:07.481Z,-1.62
2019-01-30T06:18:36.047Z,-1.64
2019-01-30T06:21:04.081Z,-1.69
2019-01-30T06:23:33.006Z,-1.68
2019-01-30T06:26:00.989Z,-1.64
2019-01-30T06:28:29.423Z,-1.64
2019-01-30T06:30:57.509Z,-1.60
2019-01-30T06:33:25.426Z,-1.58
2019-01-30T06:35:53.861Z,-1.63
2019-01-30T06:38:21.871Z,-1.62
2019-01-30T06:40:49.780Z,-1.60
2019-01-30T06:43:17.646Z,-1.62
2019-01-30T06:45:45.677Z,-1.70
2019-01-30T06:48:13.639Z,-1.72
2019-01-30T06:50:42.040Z,-1.70
2019-01-30T06:53:10.001Z,-1.71
2019-01-30T06:55:37.896Z,-1.60
2019-01-30T06:58:05.944Z,-1.55
2019-01-30T07:00:33.952Z,-1.50
2019-01-30T07:03:02.542Z,-1.52
2019-01-30T07:05:30.510Z,-1.50
2019-01-30T07:07:58.484Z,-1.51
2019-01-30T07:10:30.144Z,-1.48
2019-01-30T07:12:58.109Z,-1.61
2019-01-30T07:15:26.121Z,-1.59
2019-01-30T07:17:55.054Z,-1.54
2019-01-30T07:20:23.055Z,-1.50
2019-01-30T07:22:51.038Z,-1.52
2019-01-30T07:25:20.095Z,-1.53
2019-01-30T07:27:48.131Z,-1.56
2019-01-30T07:30:28.055Z,-1.50
2019-01-30T07:32:55.962Z,-1.52
2019-01-30T07:35:24.069Z,-1.43
2019-01-30T07:37:52.158Z,-1.40
2019-01-30T07:40:20.358Z,-1.36
2019-01-30T07:42:48.216Z,-1.31
2019-01-30T07:45:17.430Z,-1.30
2019-01-30T07:47:45.405Z,-1.22
2019-01-30T07:50:13.626Z,-1.19
2019-01-30T07:52:41.717Z,-1.14
2019-01-30T07:55:12.259Z,-1.06
2019-01-30T07:57:40.244Z,-0.98
2019-01-30T08:00:11.685Z,-0.89
2019-01-30T08:02:39.575Z,-0.77
2019-01-30T08:05:07.956Z,-0.75
2019-01-30T08:07:35.985Z,-0.66
2019-01-30T08:10:05.401Z,-0.58
2019-01-30T08:12:33.370Z,-0.49
2019-01-30T08:15:01.336Z,-0.41
2019-01-30T08:17:29.697Z,-0.36
2019-01-30T08:19:57.631Z,-0.26
2019-01-30T08:22:25.814Z,-0.18
2019-01-30T08:24:53.919Z,-0.04
2019-01-30T08:27:22.154Z,0.04
2019-01-30T08:29:50.483Z,0.14
2019-01-30T08:32:18.632Z,0.21
2019-01-30T08:34:46.742Z,0.29
2019-01-30T08:37:18.810Z,0.41
2019-01-30T08:39:46.670Z,0.50
2019-01-30T08:42:14.752Z,0.57
2019-01-30T08:44:46.976Z,0.66
2019-01-30T08:47:12.751Z,0.64
2019-01-30T08:49:40.734Z,0.75
2019-01-30T08:52:09.530Z,0.83
2019-01-30T08:54:37.338Z,0.92
2019-01-30T08:57:05.417Z,1.03
2019-01-30T08:59:33.398Z,1.10
2019-01-30T09:02:01.345Z,1.20
2019-01-30T09:04:29.967Z,1.22
2019-01-30T09:06:57.884Z,1.26
2019-01-30T09:09:25.932Z,1.32
2019-01-30T09:11:53.918Z,1.32
2019-01-30T09:14:21.894Z,1.32
2019-01-30T09:16:49.874Z,1.38
2019-01-30T09:19:17.814Z,1.37
2019-01-30T09:21:45.847Z,1.47
2019-01-30T09:24:16.141Z,1.55
2019-01-30T09:26:43.604Z,1.60
2019-01-30T09:29:11.536Z,1.69
2019-01-30T09:31:39.448Z,1.76
2019-01-30T09:34:07.279Z,1.81
2019-01-30T09:36:35.075Z,1.85
2019-01-30T09:39:18.386Z,1.85
2019-01-30T09:41:46.326Z,1.87
2019-01-30T09:44:14.314Z,1.89
2019-01-30T09:46:42.193Z,1.91
2019-01-30T09:49:09.983Z,1.88
2019-01-30T09:51:37.862Z,1.88
2019-01-30T09:54:05.926Z,1.97
2019-01-30T09:56:34.707Z,1.98
2019-01-30T09:59:02.624Z,1.97
2019-01-30T10:01:31.000Z,1.99
2019-01-30T10:03:58.948Z,2.03
2019-01-30T10:06:26.870Z,2.11
2019-01-30T10:08:55.219Z,2.14
2019-01-30T10:11:23.040Z,2.13
2019-01-30T10:13:50.937Z,2.16
2019-01-30T10:16:18.898Z,2.25
2019-01-30T10:18:46.704Z,2.19
2019-01-30T10:21:14.879Z,2.20
2019-01-30T10:23:42.857Z,2.31
2019-01-30T10:26:10.910Z,2.30
2019-01-30T10:28:38.851Z,2.36
2019-01-30T10:31:06.952Z,2.36
2019-01-30T10:33:34.843Z,2.40
2019-01-30T10:36:02.959Z,2.42
2019-01-30T10:38:31.139Z,2.49
2019-01-30T10:40:59.149Z,2.60
2019-01-30T10:43:27.154Z,2.66
2019-01-30T10:45:56.864Z,2.67
2019-01-30T10:48:24.774Z,2.76
2019-01-30T10:50:52.811Z,2.79
2019-01-30T10:53:20.723Z,2.81
2019-01-30T10:55:48.694Z,2.89
2019-01-30T10:58:17.562Z,2.93
2019-01-30T11:00:48.169Z,2.97
2019-01-30T11:03:16.570Z,3.08
2019-01-30T11:05:44.749Z,3.10
2019-01-30T11:08:12.793Z,3.24
2019-01-30T11:10:40.776Z,3.28
2019-01-30T11:13:16.461Z,3.39
2019-01-30T11:15:44.416Z,3.51
2019-01-30T11:18:14.768Z,3.54
2019-01-30T11:20:42.841Z,3.64
2019-01-30T11:23:10.849Z,3.79
2019-01-30T11:25:40.244Z,3.87
2019-01-30T11:28:08.367Z,3.94
2019-01-30T11:30:36.452Z,4.05
2019-01-30T11:33:04.837Z,4.17
2019-01-30T11:35:32.970Z,4.19
2019-01-30T11:38:01.132Z,4.24
2019-01-30T11:40:29.186Z,4.34
2019-01-30T11:42:57.164Z,4.40
2019-01-30T11:45:30.742Z,4.46
2019-01-30T11:47:58.723Z,4.53
2019-01-30T11:50:26.766Z,4.47
2019-01-30T11:52:54.725Z,4.67
2019-01-30T11:55:23.095Z,4.59
2019-01-30T11:57:50.981Z,4.62
2019-01-30T12:00:33.951Z,4.71
2019-01-30T12:03:01.837Z,4.67
2019-01-30T12:05:29.730Z,4.80
2019-01-30T12:07:58.147Z,4.79
2019-01-30T12:10:26.178Z,4.97
2019-01-30T12:12:54.059Z,5.06
2019-01-30T12:15:25.966Z,5.03
2019-01-30T12:17:53.881Z,5.05
2019-01-30T12:20:21.941Z,5.23
2019-01-30T12:22:50.717Z,5.15
2019-01-30T12:25:19.107Z,5.09
2019-01-30T12:27:47.140Z,5.12
2019-01-30T12:30:17.506Z,5.19
2019-01-30T12:32:45.437Z,5.29
2019-01-30T12:35:13.639Z,5.27
2019-01-30T12:37:41.698Z,5.24
2019-01-30T12:40:11.210Z,5.14
2019-01-30T12:42:39.299Z,5.25
2019-01-30T12:45:09.269Z,5.34
2019-01-30T12:47:37.284Z,6.05
2019-01-30T12:50:07.550Z,6.38
2019-01-30T12:52:35.539Z,5.95
2019-01-30T12:55:04.130Z,5.89
2019-01-30T12:57:31.988Z,5.81
2019-01-30T12:59:59.761Z,5.83
2019-01-30T13:02:27.880Z,5.89
2019-01-30T13:04:55.668Z,5.88
2019-01-30T13:07:23.727Z,5.90
2019-01-30T13:09:51.731Z,5.83
2019-01-30T13:12:19.704Z,5.74
2019-01-30T13:14:47.739Z,5.88
2019-01-30T13:17:19.339Z,6.08
2019-01-30T13:19:47.775Z,6.23
2019-01-30T13:22:15.679Z,6.16
2019-01-30T13:24:43.971Z,5.83
2019-01-30T13:27:11.935Z,5.91
2019-01-30T13:29:39.745Z,5.76
2019-01-30T13:32:07.867Z,5.67
2019-01-30T13:34:35.768Z,5.75
2019-01-30T13:37:03.843Z,5.59
2019-01-30T13:39:31.777Z,5.75
2019-01-30T13:42:00.542Z,5.86
2019-01-30T13:44:28.490Z,5.90
2019-01-30T13:46:56.641Z,5.85
2019-01-30T13:49:24.559Z,6.05
2019-01-30T13:51:52.361Z,6.76
2019-01-30T13:54:20.421Z,8.07
2019-01-30T13:56:48.640Z,9.01
2019-01-30T13:59:16.629Z,9.65
2019-01-30T14:01:44.639Z,9.94
2019-01-30T14:04:13.183Z,10.14
2019-01-30T14:06:41.233Z,10.35
2019-01-30T14:09:09.585Z,10.27
2019-01-30T14:11:37.584Z,9.59
2019-01-30T14:14:05.716Z,9.57
2019-01-30T14:16:33.800Z,9.53
2019-01-30T14:19:01.940Z,9.73
2019-01-30T14:21:29.816Z,9.60
2019-01-30T14:23:57.714Z,9.72
2019-01-30T14:26:25.608Z,9.87
2019-01-30T14:28:53.521Z,9.67
2019-01-30T14:31:21.616Z,9.83
2019-01-30T14:33:50.288Z,9.74
2019-01-30T14:36:18.289Z,9.85
2019-01-30T14:38:46.258Z,9.35
2019-01-30T14:41:14.182Z,9.10
2019-01-30T14:43:41.995Z,8.71
2019-01-30T14:46:10.041Z,8.74
2019-01-30T14:48:38.109Z,8.32
2019-01-30T14:51:19.294Z,8.24
2019-01-30T14:53:47.161Z,8.22
2019-01-30T14:56:15.042Z,8.07
2019-01-30T14:58:42.817Z,7.88
2019-01-30T15:01:10.764Z,7.80
2019-01-30T15:03:38.756Z,7.72
2019-01-30T15:06:06.747Z,7.71
2019-01-30T15:08:34.655Z,7.53
2019-01-30T15:11:02.619Z,7.46
2019-01-30T15:13:30.725Z,7.42
2019-01-30T15:15:58.596Z,7.31
2019-01-30T15:18:26.703Z,7.19
2019-01-30T15:20:54.491Z,7.06
2019-01-30T15:23:22.298Z,6.87
2019-01-30T15:25:50.449Z,6.76
2019-01-30T15:28:18.348Z,6.63
2019-01-30T15:30:47.519Z,6.51
2019-01-30T15:33:15.559Z,6.44
2019-01-30T15:35:43.755Z,6.24
2019-01-30T15:38:13.444Z,6.12
2019-01-30T15:40:41.672Z,6.03
2019-01-30T15:43:09.735Z,5.95
2019-01-30T15:45:37.783Z,5.82
2019-01-30T15:48:06.027Z,5.71
2019-01-30T15:50:35.020Z,5.64
2019-01-30T15:53:05.889Z,5.52
2019-01-30T15:55:34.050Z,5.46
2019-01-30T15:58:05.134Z,5.38
2019-01-30T16:00:36.053Z,5.28
2019-01-30T16:03:04.272Z,5.23
2019-01-30T16:05:32.320Z,5.17
2019-01-30T16:08:00.283Z,4.97
2019-01-30T16:10:28.298Z,4.93
2019-01-30T16:12:56.257Z,4.88
2019-01-30T16:15:27.371Z,4.83
2019-01-30T16:17:55.352Z,4.74
2019-01-30T16:20:23.497Z,4.68
2019-01-30T16:22:51.476Z,4.64
2019-01-30T16:25:19.445Z,4.60
2019-01-30T16:27:47.437Z,4.58
2019-01-30T16:30:17.998Z,4.55
2019-01-30T16:32:47.820Z,4.45
2019-01-30T16:35:21.386Z,4.42
2019-01-30T16:37:49.408Z,4.37
2019-01-30T16:40:17.494Z,4.30
2019-01-30T16:42:45.421Z,4.11
2019-01-30T16:45:15.733Z,4.06
2019-01-30T16:47:44.409Z,4.03
2019-01-30T16:50:13.542Z,3.96
2019-01-30T16:52:41.513Z,3.93
2019-01-30T16:55:10.474Z,3.86
2019-01-30T16:57:38.482Z,3.79
2019-01-30T17:00:10.134Z,3.68
2019-01-30T17:02:38.134Z,3.50
2019-01-30T17:05:08.679Z,3.50
2019-01-30T17:07:36.852Z,3.46
2019-01-30T17:10:07.053Z,3.40
2019-01-30T17:12:35.000Z,3.31
2019-01-30T17:15:03.286Z,3.19
2019-01-30T17:17:31.399Z,3.10
2019-01-30T17:19:59.687Z,3.12
2019-01-30T17:22:27.642Z,2.96
2019-01-30T17:24:56.132Z,2.79
2019-01-30T17:27:24.120Z,2.71
2019-01-30T17:29:52.020Z,2.64
2019-01-30T17:32:19.839Z,2.48
2019-01-30T17:34:47.878Z,2.57
2019-01-30T17:37:15.824Z,2.50
2019-01-30T17:39:43.818Z,2.54
2019-01-30T17:42:11.894Z,2.36
2019-01-30T17:44:39.748Z,2.29
2019-01-30T17:47:07.861Z,2.36
2019-01-30T17:49:35.737Z,2.27
2019-01-30T17:52:03.703Z,2.16
2019-01-30T17:54:31.548Z,2.16
2019-01-30T17:56:59.605Z,2.13
2019-01-30T17:59:27.445Z,2.18
2019-01-30T18:01:55.526Z,2.17
2019-01-30T18:04:23.419Z,2.17
2019-01-30T18:06:51.400Z,2.16
2019-01-30T18:09:19.371Z,2.23
2019-01-30T18:11:47.398Z,2.30
2019-01-30T18:14:15.378Z,2.36
2019-01-30T18:16:43.444Z,2.36
2019-01-30T18:19:11.210Z,2.38
2019-01-30T18:21:39.260Z,2.39
2019-01-30T18:24:07.342Z,2.37
2019-01-30T18:26:37.975Z,2.31
2019-01-30T18:29:05.206Z,2.20
2019-01-30T18:31:33.025Z,2.18
2019-01-30T18:34:01.095Z,2.24
2019-01-30T18:36:40.400Z,2.29
2019-01-30T18:38:59.371Z,2.25
2019-01-30T18:41:27.333Z,2.22
2019-01-30T18:43:55.513Z,2.23
2019-01-30T18:46:24.145Z,2.19
2019-01-30T18:48:52.083Z,2.20
2019-01-30T18:51:20.067Z,2.21
2019-01-30T18:53:48.369Z,2.16
2019-01-30T18:56:16.312Z,2.15
2019-01-30T18:58:44.296Z,2.12
2019-01-30T19:01:12.274Z,2.07
2019-01-30T19:03:40.246Z,2.05
2019-01-30T19:06:08.220Z,1.98
2019-01-30T19:08:36.210Z,1.94
2019-01-30T19:11:04.176Z,1.91
2019-01-30T19:13:32.180Z,1.97
2019-01-30T19:16:00.718Z,1.98
2019-01-30T19:18:28.815Z,1.97
2019-01-30T19:20:56.810Z,1.99
2019-01-30T19:23:24.655Z,1.97
2019-01-30T19:25:52.434Z,2.00
2019-01-30T19:28:20.271Z,2.00
2019-01-30T19:30:48.146Z,1.92
2019-01-30T19:33:16.132Z,1.81
2019-01-30T19:35:44.136Z,1.80
2019-01-30T19:38:12.040Z,1.81
2019-01-30T19:40:40.006Z,1.69
2019-01-30T19:43:07.866Z,1.66
2019-01-30T19:45:35.920Z,1.60
2019-01-30T19:48:05.090Z,1.55
2019-01-30T19:50:33.146Z,1.50
2019-01-30T19:53:01.146Z,1.51
2019-01-30T19:55:29.118Z,1.55
2019-01-30T19:57:57.244Z,1.65
2019-01-30T20:00:30.644Z,1.68
2019-01-30T20:02:59.057Z,1.69
2019-01-30T20:05:27.045Z,1.62
2019-01-30T20:07:55.122Z,1.60
2019-01-30T20:10:28.759Z,1.60
2019-01-30T20:12:56.800Z,1.60
2019-01-30T20:15:24.878Z,1.60
2019-01-30T20:17:52.840Z,1.61
2019-01-30T20:20:21.298Z,1.59
2019-01-30T20:22:49.477Z,1.55
2019-01-30T20:25:19.863Z,1.52
2019-01-30T20:27:47.810Z,1.53
2019-01-30T20:30:17.749Z,1.50
2019-01-30T20:32:46.014Z,1.50
2019-01-30T20:35:14.165Z,1.48
2019-01-30T20:37:42.068Z,1.42
2019-01-30T20:40:13.240Z,1.43
2019-01-30T20:42:41.415Z,1.42
2019-01-30T20:45:10.641Z,1.36
2019-01-30T20:47:38.739Z,1.23
2019-01-30T20:50:09.514Z,1.07
2019-01-30T20:52:37.334Z,0.98
2019-01-30T20:55:06.123Z,0.97
2019-01-30T20:57:34.041Z,0.90
2019-01-30T21:00:04.067Z,0.94
2019-01-30T21:02:32.649Z,0.99
2019-01-30T21:05:00.681Z,1.00
2019-01-30T21:07:37.023Z,1.03
2019-01-30T21:09:58.440Z,1.00
2019-01-30T21:12:26.368Z,0.90
2019-01-30T21:14:54.208Z,0.92
2019-01-30T21:17:22.107Z,0.83
2019-01-30T21:19:49.909Z,0.81
2019-01-30T21:22:17.778Z,0.73
2019-01-30T21:24:45.703Z,0.69
2019-01-30T21:27:13.698Z,0.64
2019-01-30T21:29:41.697Z,0.63
2019-01-30T21:32:14.078Z,0.48
2019-01-30T21:34:41.854Z,0.30
2019-01-30T21:37:09.694Z,0.21
2019-01-30T21:39:37.667Z,0.08
2019-01-30T21:42:05.741Z,-0.02
2019-01-30T21:44:33.536Z,0.01
2019-01-30T21:47:02.700Z,0.07
2019-01-30T21:49:30.811Z,0.09
2019-01-30T21:51:58.821Z,0.11
2019-01-30T21:54:26.878Z,0.05
2019-01-30T21:56:55.503Z,0.02
2019-01-30T21:59:23.276Z,-0.02
2019-01-30T22:01:51.219Z,0.01
2019-01-30T22:04:19.124Z,-0.01
2019-01-30T22:06:47.353Z,-0.02
2019-01-30T22:09:15.214Z,-0.13
2019-01-30T22:11:43.201Z,-0.31
2019-01-30T22:14:11.147Z,-0.28
2019-01-30T22:16:38.943Z,-0.20
2019-01-30T22:19:07.016Z,-0.15
2019-01-30T22:21:34.813Z,-0.14
2019-01-30T22:24:05.522Z,-0.09
2019-01-30T22:26:32.720Z,-0.14
2019-01-30T22:29:02.695Z,-0.20
2019-01-30T22:31:30.445Z,-0.25
2019-01-30T22:33:58.829Z,-0.36
2019-01-30T22:36:26.679Z,-0.47
2019-01-30T22:38:54.500Z,-0.52
2019-01-30T22:41:22.418Z,-0.58
2019-01-30T22:43:50.326Z,-0.58
2019-01-30T22:46:18.316Z,-0.56
2019-01-30T22:48:46.244Z,-0.57
2019-01-30T22:51:14.088Z,-0.57
2019-01-30T22:53:41.972Z,-0.69
2019-01-30T22:56:09.935Z,-0.73
2019-01-30T22:58:37.788Z,-0.82
2019-01-30T23:01:26.988Z,-0.84
2019-01-30T23:04:27.949Z,-0.81
2019-01-30T23:07:38.053Z,-0.72
2019-01-30T23:10:45.120Z,-0.63
2019-01-30T23:13:33.723Z,-0.57
2019-01-30T23:16:40.294Z,-0.53
2019-01-30T23:20:04.932Z,-0.54
2019-01-30T23:23:04.748Z,-0.58
2019-01-30T23:25:54.127Z,-0.69
2019-01-30T23:28:42.050Z,-0.75
2019-01-30T23:31:32.831Z,-0.65
2019-01-30T23:34:33.898Z,-0.60
2019-01-30T23:37:23.769Z,-0.61
2019-01-30T23:40:30.262Z,-0.71
2019-01-30T23:43:43.589Z,-0.74
2019-01-30T23:46:32.856Z,-0.73
2019-01-30T23:49:48.619Z,-0.59
2019-01-30T23:52:57.776Z,-0.52
2019-01-30T23:56:06.253Z,-0.51
2019-01-30T23:58:51.417Z,-0.43
